Strona główna
METAR-TAF:

METAR-TAF

Lotnisko :

Trevico, Włochy

Szerokość geograficzna: 41-03N, Długość geograficzna: 015-14E, wysokość: 1085 m

Aktualna obserwacja pogody

Raport powstał 1 godzina i 2 minut temu, godzina 16:55 UTC
Wiatr 5 kt od wschodnio-północny wschód, zmienny między północno-północny wschód i wschodnio-południowy wschód
Temperatura 26°C
Wilgotność 42%
Ciśnienie 1021 hPa
Widzialność 10 km lub więcej
Mało chmury na wysokości 900 ft

METAR: LIRT 211655Z 07005KT 030V120 9999 FEW009 26/12 Q1021 RMK FEW MON LIB VAL NIL VIS MIN 9999

czas: 19:57 (17:57 UTC)


TAF: brakujący

Obserwacja i prognoza pogody dla ponad 4000 lotnisk (raport METAR i TAF).

Dostępne stacje oznaczono żółtymi i czerwonymi punktami na mapie.

Najedź kursorem aby zobaczyć nazwę stacji.

Kliknij aby zobaczyć obserwacje i prognozy pogody.

Aby zmienić mapę: kliknij na zielony przycisk z czarnym krzyżykiem, aby powiększyć; na zielony przycisk z myślnikiem, aby pomniejszyć; na zielone strzałki, aby przejść do map sąsiednich.


METAR-TAF: